首页
METAR-TAF:

METAR-TAF

机场 :

奥斯滕德, 比利时

纬度: 51-12N, 经度: 002-52E, 海拔: 4米

当前天气观测

该预报发布于25分钟前的12:20 UTC
风速16节,风向西
温度 19°C
湿度 64%
气压 1016 hPa
能见度10公里或以上
少量云层高于3500英尺, 塔状积云.

METAR: EBOS 191220Z 26016KT 9999 FEW035TCU 19/12 Q1016 NOSIG

时间: 14:45 (12:45 UTC)

预报

该预报发布于1小时和35分钟前的11:10 UTC
预报有效从19日的 12点(UTC)到 20日的 18点(UTC)
风速15节,风向西转西南,有时为25节阵风
能见度10公里或以上
散云层高于4000英尺
几率 30% :
短暂存在
从 19日的 12点(UTC)到 19日的 20点(UTC)
能見度: 4000
阵雨
成为
从 19日的 18点(UTC)到 19日的 20点(UTC)
风速9节,风向西南

TAF: EBOS 191110Z 1912/2018 25015G25KT 9999 SCT040 PROB30 TEMPO 1912/1920 4000 SHRA BECMG 1918/1920 23009KT

超过4000个机场的气象观测和天气预报(METAR&TAF报告)。

可查询的气象台以黄色和红色小点在地图上表示。

将鼠标移到小点上方,可查看气象台名称。

然后点击查看天气观测和预报。

如需切换地图:点击带黑十字的绿色按钮放大地图;点击带横线的绿色按钮缩小地图;或者点击绿色箭头查看邻近地区的地图。


METAR-TAF: